sensor_id;sensor_type;location;lat;lon;timestamp;temperature;humidity
9984;DHT22;16737;50.932;6.780;2022-09-27T00:01:24;13.80;96.50
9984;DHT22;16737;50.932;6.780;2022-09-27T00:03:52;13.70;96.40
9984;DHT22;16737;50.932;6.780;2022-09-27T00:06:23;13.70;96.50
9984;DHT22;16737;50.932;6.780;2022-09-27T00:08:52;13.70;96.50
9984;DHT22;16737;50.932;6.780;2022-09-27T00:11:24;13.60;96.50
9984;DHT22;16737;50.932;6.780;2022-09-27T00:13:53;13.60;96.60
9984;DHT22;16737;50.932;6.780;2022-09-27T00:16:23;13.70;96.50
9984;DHT22;16737;50.932;6.780;2022-09-27T00:18:51;13.60;96.60
9984;DHT22;16737;50.932;6.780;2022-09-27T00:21:18;13.60;96.50
9984;DHT22;16737;50.932;6.780;2022-09-27T00:23:46;13.60;96.90
9984;DHT22;16737;50.932;6.780;2022-09-27T00:26:13;13.60;96.60
9984;DHT22;16737;50.932;6.780;2022-09-27T00:28:40;13.60;96.70
9984;DHT22;16737;50.932;6.780;2022-09-27T00:31:16;13.60;96.70
9984;DHT22;16737;50.932;6.780;2022-09-27T00:33:48;13.60;96.80
9984;DHT22;16737;50.932;6.780;2022-09-27T00:36:16;13.60;96.70
9984;DHT22;16737;50.932;6.780;2022-09-27T00:38:45;13.60;96.70
9984;DHT22;16737;50.932;6.780;2022-09-27T00:41:14;13.60;96.70
9984;DHT22;16737;50.932;6.780;2022-09-27T00:43:46;13.60;96.70
9984;DHT22;16737;50.932;6.780;2022-09-27T00:46:20;13.50;96.70
9984;DHT22;16737;50.932;6.780;2022-09-27T00:49:01;13.50;96.80
9984;DHT22;16737;50.932;6.780;2022-09-27T00:51:33;13.50;96.90
9984;DHT22;16737;50.932;6.780;2022-09-27T00:54:05;13.50;96.80
9984;DHT22;16737;50.932;6.780;2022-09-27T00:56:35;13.50;96.80
9984;DHT22;16737;50.932;6.780;2022-09-27T00:59:08;13.50;96.70
9984;DHT22;16737;50.932;6.780;2022-09-27T01:01:39;13.50;96.80
9984;DHT22;16737;50.932;6.780;2022-09-27T01:04:09;13.50;96.70
9984;DHT22;16737;50.932;6.780;2022-09-27T01:06:38;13.50;96.70
9984;DHT22;16737;50.932;6.780;2022-09-27T01:09:07;13.40;96.70
9984;DHT22;16737;50.932;6.780;2022-09-27T01:11:40;13.40;96.80
9984;DHT22;16737;50.932;6.780;2022-09-27T01:14:28;13.40;96.80
9984;DHT22;16737;50.932;6.780;2022-09-27T01:17:15;13.40;96.90
9984;DHT22;16737;50.932;6.780;2022-09-27T01:20:13;13.40;96.80
9984;DHT22;16737;50.932;6.780;2022-09-27T01:23:08;13.40;97.00
9984;DHT22;16737;50.932;6.780;2022-09-27T01:25:58;13.40;96.80
9984;DHT22;16737;50.932;6.780;2022-09-27T01:28:47;13.30;96.80
9984;DHT22;16737;50.932;6.780;2022-09-27T01:31:31;13.30;96.90
9984;DHT22;16737;50.932;6.780;2022-09-27T01:34:03;13.30;96.90
9984;DHT22;16737;50.932;6.780;2022-09-27T01:36:42;13.30;96.80
9984;DHT22;16737;50.932;6.780;2022-09-27T01:39:27;13.30;96.90
9984;DHT22;16737;50.932;6.780;2022-09-27T01:42:03;13.30;96.90
9984;DHT22;16737;50.932;6.780;2022-09-27T01:44:42;13.30;96.90
9984;DHT22;16737;50.932;6.780;2022-09-27T01:47:19;13.20;96.90
9984;DHT22;16737;50.932;6.780;2022-09-27T01:49:53;13.20;97.00
9984;DHT22;16737;50.932;6.780;2022-09-27T01:52:26;13.30;97.10
9984;DHT22;16737;50.932;6.780;2022-09-27T01:55:00;13.20;97.00
9984;DHT22;16737;50.932;6.780;2022-09-27T01:57:34;13.20;97.00
9984;DHT22;16737;50.932;6.780;2022-09-27T02:00:07;13.20;97.00
9984;DHT22;16737;50.932;6.780;2022-09-27T02:02:39;13.20;97.00
9984;DHT22;16737;50.932;6.780;2022-09-27T02:05:12;13.20;97.00
9984;DHT22;16737;50.932;6.780;2022-09-27T02:07:45;13.20;97.00
9984;DHT22;16737;50.932;6.780;2022-09-27T02:10:20;13.20;97.00
9984;DHT22;16737;50.932;6.780;2022-09-27T02:12:53;13.20;97.00
9984;DHT22;16737;50.932;6.780;2022-09-27T02:15:25;13.20;97.40
9984;DHT22;16737;50.932;6.780;2022-09-27T02:17:56;13.20;97.10
9984;DHT22;16737;50.932;6.780;2022-09-27T02:20:30;13.20;97.10
9984;DHT22;16737;50.932;6.780;2022-09-27T02:23:09;13.20;97.10
9984;DHT22;16737;50.932;6.780;2022-09-27T02:25:49;13.20;97.20
9984;DHT22;16737;50.932;6.780;2022-09-27T02:28:23;13.20;97.10
9984;DHT22;16737;50.932;6.780;2022-09-27T02:30:56;13.20;97.20
9984;DHT22;16737;50.932;6.780;2022-09-27T02:33:28;13.20;97.10
9984;DHT22;16737;50.932;6.780;2022-09-27T02:36:01;13.20;97.20
9984;DHT22;16737;50.932;6.780;2022-09-27T02:38:28;13.20;97.20
9984;DHT22;16737;50.932;6.780;2022-09-27T02:40:56;13.20;97.20
9984;DHT22;16737;50.932;6.780;2022-09-27T02:43:26;13.10;97.10
9984;DHT22;16737;50.932;6.780;2022-09-27T02:46:08;13.10;97.20
9984;DHT22;16737;50.932;6.780;2022-09-27T02:48:58;13.20;97.40
9984;DHT22;16737;50.932;6.780;2022-09-27T02:51:42;13.20;97.30
9984;DHT22;16737;50.932;6.780;2022-09-27T02:54:23;13.10;97.20
9984;DHT22;16737;50.932;6.780;2022-09-27T02:57:05;13.10;97.20
9984;DHT22;16737;50.932;6.780;2022-09-27T02:59:51;13.10;97.10
9984;DHT22;16737;50.932;6.780;2022-09-27T03:02:31;13.10;97.40
9984;DHT22;16737;50.932;6.780;2022-09-27T03:05:06;13.10;97.20
9984;DHT22;16737;50.932;6.780;2022-09-27T03:07:34;13.10;97.30
9984;DHT22;16737;50.932;6.780;2022-09-27T03:10:04;13.10;97.20
9984;DHT22;16737;50.932;6.780;2022-09-27T03:12:32;13.10;97.20
9984;DHT22;16737;50.932;6.780;2022-09-27T03:15:00;13.00;97.20
9984;DHT22;16737;50.932;6.780;2022-09-27T03:17:27;13.00;97.20
9984;DHT22;16737;50.932;6.780;2022-09-27T03:19:54;13.10;97.20
9984;DHT22;16737;50.932;6.780;2022-09-27T03:22:23;13.00;97.10
9984;DHT22;16737;50.932;6.780;2022-09-27T03:24:51;13.00;97.40
9984;DHT22;16737;50.932;6.780;2022-09-27T03:27:18;13.00;97.10
9984;DHT22;16737;50.932;6.780;2022-09-27T03:29:45;12.90;97.00
9984;DHT22;16737;50.932;6.780;2022-09-27T03:32:12;12.90;97.00
9984;DHT22;16737;50.932;6.780;2022-09-27T03:34:39;12.90;97.00
9984;DHT22;16737;50.932;6.780;2022-09-27T03:37:06;12.90;97.10
9984;DHT22;16737;50.932;6.780;2022-09-27T03:39:35;12.90;97.10
9984;DHT22;16737;50.932;6.780;2022-09-27T03:42:02;12.80;97.00
9984;DHT22;16737;50.932;6.780;2022-09-27T03:44:29;12.80;97.00
9984;DHT22;16737;50.932;6.780;2022-09-27T03:46:57;12.80;97.10
9984;DHT22;16737;50.932;6.780;2022-09-27T03:49:24;12.80;97.10
9984;DHT22;16737;50.932;6.780;2022-09-27T03:51:51;12.80;97.10
9984;DHT22;16737;50.932;6.780;2022-09-27T03:54:19;12.70;97.10
9984;DHT22;16737;50.932;6.780;2022-09-27T03:56:47;12.80;97.20
9984;DHT22;16737;50.932;6.780;2022-09-27T03:59:14;12.70;97.10
9984;DHT22;16737;50.932;6.780;2022-09-27T04:01:41;12.70;97.10
9984;DHT22;16737;50.932;6.780;2022-09-27T04:04:09;12.70;97.10
9984;DHT22;16737;50.932;6.780;2022-09-27T04:06:36;12.70;97.00
9984;DHT22;16737;50.932;6.780;2022-09-27T04:09:03;12.70;97.00
9984;DHT22;16737;50.932;6.780;2022-09-27T04:11:30;12.60;97.00
9984;DHT22;16737;50.932;6.780;2022-09-27T04:13:58;12.60;97.00
9984;DHT22;16737;50.932;6.780;2022-09-27T04:16:26;12.60;97.00
9984;DHT22;16737;50.932;6.780;2022-09-27T04:18:53;12.60;97.00
9984;DHT22;16737;50.932;6.780;2022-09-27T04:21:21;12.60;97.40
9984;DHT22;16737;50.932;6.780;2022-09-27T04:23:48;12.50;97.00
9984;DHT22;16737;50.932;6.780;2022-09-27T04:26:15;12.50;97.00
9984;DHT22;16737;50.932;6.780;2022-09-27T04:28:42;12.50;97.10
9984;DHT22;16737;50.932;6.780;2022-09-27T04:31:11;12.50;97.10
9984;DHT22;16737;50.932;6.780;2022-09-27T04:33:38;12.50;97.10
9984;DHT22;16737;50.932;6.780;2022-09-27T04:36:05;12.50;97.10
9984;DHT22;16737;50.932;6.780;2022-09-27T04:38:50;12.40;97.10
9984;DHT22;16737;50.932;6.780;2022-09-27T04:41:18;12.40;97.00
9984;DHT22;16737;50.932;6.780;2022-09-27T04:43:46;12.40;97.00
9984;DHT22;16737;50.932;6.780;2022-09-27T04:46:14;12.40;97.10
9984;DHT22;16737;50.932;6.780;2022-09-27T04:48:41;12.40;97.10
9984;DHT22;16737;50.932;6.780;2022-09-27T04:51:09;12.40;97.10
9984;DHT22;16737;50.932;6.780;2022-09-27T04:53:36;12.40;97.10
9984;DHT22;16737;50.932;6.780;2022-09-27T04:56:04;12.40;97.20
9984;DHT22;16737;50.932;6.780;2022-09-27T04:58:32;12.30;97.10
9984;DHT22;16737;50.932;6.780;2022-09-27T05:01:00;12.30;97.10
9984;DHT22;16737;50.932;6.780;2022-09-27T05:03:30;12.30;97.20
9984;DHT22;16737;50.932;6.780;2022-09-27T05:05:58;12.30;97.20
9984;DHT22;16737;50.932;6.780;2022-09-27T05:08:26;12.30;97.20
9984;DHT22;16737;50.932;6.780;2022-09-27T05:10:53;12.30;97.20
9984;DHT22;16737;50.932;6.780;2022-09-27T05:13:21;12.30;97.20
9984;DHT22;16737;50.932;6.780;2022-09-27T05:15:48;12.30;97.50
9984;DHT22;16737;50.932;6.780;2022-09-27T05:18:17;12.30;97.50
9984;DHT22;16737;50.932;6.780;2022-09-27T05:20:45;12.20;97.10
9984;DHT22;16737;50.932;6.780;2022-09-27T05:23:13;12.20;97.10
9984;DHT22;16737;50.932;6.780;2022-09-27T05:25:40;12.20;97.10
9984;DHT22;16737;50.932;6.780;2022-09-27T05:28:07;12.30;97.20
9984;DHT22;16737;50.932;6.780;2022-09-27T05:30:34;12.20;97.10
9984;DHT22;16737;50.932;6.780;2022-09-27T05:33:02;12.20;97.10
9984;DHT22;16737;50.932;6.780;2022-09-27T05:35:29;12.20;97.20
9984;DHT22;16737;50.932;6.780;2022-09-27T05:37:59;12.20;97.10
9984;DHT22;16737;50.932;6.780;2022-09-27T05:40:27;12.10;97.10
9984;DHT22;16737;50.932;6.780;2022-09-27T05:42:55;12.10;97.10
9984;DHT22;16737;50.932;6.780;2022-09-27T05:45:23;12.10;97.30
9984;DHT22;16737;50.932;6.780;2022-09-27T05:47:52;12.10;97.10
9984;DHT22;16737;50.932;6.780;2022-09-27T05:50:20;12.10;97.10
9984;DHT22;16737;50.932;6.780;2022-09-27T05:52:47;12.10;97.10
9984;DHT22;16737;50.932;6.780;2022-09-27T05:55:16;12.10;97.20
9984;DHT22;16737;50.932;6.780;2022-09-27T05:57:53;12.10;97.20
9984;DHT22;16737;50.932;6.780;2022-09-27T06:00:21;12.10;97.30
9984;DHT22;16737;50.932;6.780;2022-09-27T06:02:54;12.10;97.30
9984;DHT22;16737;50.932;6.780;2022-09-27T06:05:24;12.00;97.30
9984;DHT22;16737;50.932;6.780;2022-09-27T06:07:57;12.10;97.40
9984;DHT22;16737;50.932;6.780;2022-09-27T06:10:27;12.10;97.40
9984;DHT22;16737;50.932;6.780;2022-09-27T06:12:58;12.10;97.40
9984;DHT22;16737;50.932;6.780;2022-09-27T06:15:26;12.10;97.40
9984;DHT22;16737;50.932;6.780;2022-09-27T06:17:54;12.10;97.50
9984;DHT22;16737;50.932;6.780;2022-09-27T06:20:21;12.10;97.50
9984;DHT22;16737;50.932;6.780;2022-09-27T06:22:48;12.10;97.50
9984;DHT22;16737;50.932;6.780;2022-09-27T06:25:15;12.20;97.50
9984;DHT22;16737;50.932;6.780;2022-09-27T06:27:44;12.20;97.50
9984;DHT22;16737;50.932;6.780;2022-09-27T06:30:11;12.20;97.50
9984;DHT22;16737;50.932;6.780;2022-09-27T06:32:38;12.20;97.50
9984;DHT22;16737;50.932;6.780;2022-09-27T06:35:05;12.20;97.50
9984;DHT22;16737;50.932;6.780;2022-09-27T06:37:33;12.30;97.50
9984;DHT22;16737;50.932;6.780;2022-09-27T06:40:00;12.30;97.50
9984;DHT22;16737;50.932;6.780;2022-09-27T06:42:28;12.30;97.50
9984;DHT22;16737;50.932;6.780;2022-09-27T06:44:56;12.30;97.50
9984;DHT22;16737;50.932;6.780;2022-09-27T06:47:23;12.30;97.50
9984;DHT22;16737;50.932;6.780;2022-09-27T06:49:51;12.30;97.50
9984;DHT22;16737;50.932;6.780;2022-09-27T06:52:18;12.30;97.50
9984;DHT22;16737;50.932;6.780;2022-09-27T06:54:45;12.30;97.50
9984;DHT22;16737;50.932;6.780;2022-09-27T06:57:12;12.30;97.50
9984;DHT22;16737;50.932;6.780;2022-09-27T07:00:02;12.40;97.60
9984;DHT22;16737;50.932;6.780;2022-09-27T07:02:47;12.40;97.60
9984;DHT22;16737;50.932;6.780;2022-09-27T07:05:15;12.40;97.50
9984;DHT22;16737;50.932;6.780;2022-09-27T07:07:42;12.40;97.50
9984;DHT22;16737;50.932;6.780;2022-09-27T07:10:09;12.40;97.60
9984;DHT22;16737;50.932;6.780;2022-09-27T07:12:37;12.40;97.60
9984;DHT22;16737;50.932;6.780;2022-09-27T07:15:06;12.50;97.60
9984;DHT22;16737;50.932;6.780;2022-09-27T07:17:34;12.50;97.60
9984;DHT22;16737;50.932;6.780;2022-09-27T07:20:02;12.50;97.50
9984;DHT22;16737;50.932;6.780;2022-09-27T07:22:29;12.50;97.50
9984;DHT22;16737;50.932;6.780;2022-09-27T07:24:56;12.60;97.50
9984;DHT22;16737;50.932;6.780;2022-09-27T07:27:23;12.50;97.40
9984;DHT22;16737;50.932;6.780;2022-09-27T07:29:51;12.50;97.40
9984;DHT22;16737;50.932;6.780;2022-09-27T07:32:19;12.50;97.40
9984;DHT22;16737;50.932;6.780;2022-09-27T07:34:47;12.60;97.50
9984;DHT22;16737;50.932;6.780;2022-09-27T07:37:14;12.60;97.50
9984;DHT22;16737;50.932;6.780;2022-09-27T07:39:42;12.60;97.50
9984;DHT22;16737;50.932;6.780;2022-09-27T07:42:09;12.60;97.50
9984;DHT22;16737;50.932;6.780;2022-09-27T07:44:36;12.60;97.50
9984;DHT22;16737;50.932;6.780;2022-09-27T07:47:05;12.60;97.50
9984;DHT22;16737;50.932;6.780;2022-09-27T07:49:34;12.60;97.50
9984;DHT22;16737;50.932;6.780;2022-09-27T07:52:01;12.60;97.50
9984;DHT22;16737;50.932;6.780;2022-09-27T07:54:28;12.60;97.50
9984;DHT22;16737;50.932;6.780;2022-09-27T07:56:55;12.70;97.60
9984;DHT22;16737;50.932;6.780;2022-09-27T07:59:22;12.70;97.50
9984;DHT22;16737;50.932;6.780;2022-09-27T08:01:49;12.70;97.50
9984;DHT22;16737;50.932;6.780;2022-09-27T08:04:16;12.70;97.50
9984;DHT22;16737;50.932;6.780;2022-09-27T08:06:44;12.80;97.60
9984;DHT22;16737;50.932;6.780;2022-09-27T08:09:12;12.80;97.60
9984;DHT22;16737;50.932;6.780;2022-09-27T08:11:39;12.80;97.60
9984;DHT22;16737;50.932;6.780;2022-09-27T08:14:06;12.80;97.60
9984;DHT22;16737;50.932;6.780;2022-09-27T08:16:33;12.90;97.60
9984;DHT22;16737;50.932;6.780;2022-09-27T08:19:00;12.90;97.50
9984;DHT22;16737;50.932;6.780;2022-09-27T08:21:27;12.90;97.50
9984;DHT22;16737;50.932;6.780;2022-09-27T08:23:56;12.90;97.50
9984;DHT22;16737;50.932;6.780;2022-09-27T08:26:27;12.90;97.50
9984;DHT22;16737;50.932;6.780;2022-09-27T08:28:54;13.00;97.60
9984;DHT22;16737;50.932;6.780;2022-09-27T08:31:21;13.00;97.50
9984;DHT22;16737;50.932;6.780;2022-09-27T08:33:50;13.00;97.60
9984;DHT22;16737;50.932;6.780;2022-09-27T08:36:18;13.00;97.90
9984;DHT22;16737;50.932;6.780;2022-09-27T08:38:47;13.10;97.50
9984;DHT22;16737;50.932;6.780;2022-09-27T08:41:26;13.10;97.60
9984;DHT22;16737;50.932;6.780;2022-09-27T08:44:08;13.10;97.60
9984;DHT22;16737;50.932;6.780;2022-09-27T08:46:50;13.20;97.70
9984;DHT22;16737;50.932;6.780;2022-09-27T08:49:28;13.20;97.70
9984;DHT22;16737;50.932;6.780;2022-09-27T08:51:59;13.30;97.80
9984;DHT22;16737;50.932;6.780;2022-09-27T08:54:29;13.30;97.90
9984;DHT22;16737;50.932;6.780;2022-09-27T08:57:04;13.40;98.00
9984;DHT22;16737;50.932;6.780;2022-09-27T08:59:40;13.50;98.10
9984;DHT22;16737;50.932;6.780;2022-09-27T09:02:16;13.60;98.00
9984;DHT22;16737;50.932;6.780;2022-09-27T09:04:48;13.70;98.00
9984;DHT22;16737;50.932;6.780;2022-09-27T09:07:36;13.80;97.90
9984;DHT22;16737;50.932;6.780;2022-09-27T09:10:26;13.90;97.70
9984;DHT22;16737;50.932;6.780;2022-09-27T09:13:29;13.90;97.40
9984;DHT22;16737;50.932;6.780;2022-09-27T09:16:14;14.00;97.30
9984;DHT22;16737;50.932;6.780;2022-09-27T09:19:01;14.00;97.20
9984;DHT22;16737;50.932;6.780;2022-09-27T09:21:46;14.10;97.30
9984;DHT22;16737;50.932;6.780;2022-09-27T09:24:33;14.10;97.30
9984;DHT22;16737;50.932;6.780;2022-09-27T09:27:14;14.10;97.20
9984;DHT22;16737;50.932;6.780;2022-09-27T09:30:16;14.10;97.20
9984;DHT22;16737;50.932;6.780;2022-09-27T09:33:00;14.20;97.10
9984;DHT22;16737;50.932;6.780;2022-09-27T09:35:40;14.20;97.00
9984;DHT22;16737;50.932;6.780;2022-09-27T09:38:14;14.20;97.00
9984;DHT22;16737;50.932;6.780;2022-09-27T09:40:47;14.20;96.90
9984;DHT22;16737;50.932;6.780;2022-09-27T09:43:25;14.20;96.90
9984;DHT22;16737;50.932;6.780;2022-09-27T09:46:04;14.20;96.90
9984;DHT22;16737;50.932;6.780;2022-09-27T09:48:40;14.20;96.90
9984;DHT22;16737;50.932;6.780;2022-09-27T09:51:15;14.20;96.90
9984;DHT22;16737;50.932;6.780;2022-09-27T09:53:52;14.20;96.90
9984;DHT22;16737;50.932;6.780;2022-09-27T09:56:24;14.30;97.00
9984;DHT22;16737;50.932;6.780;2022-09-27T09:58:57;14.30;97.10
9984;DHT22;16737;50.932;6.780;2022-09-27T10:01:33;14.30;97.00
9984;DHT22;16737;50.932;6.780;2022-09-27T10:04:04;14.40;96.90
9984;DHT22;16737;50.932;6.780;2022-09-27T10:06:32;14.40;97.00
9984;DHT22;16737;50.932;6.780;2022-09-27T10:08:59;14.40;96.90
9984;DHT22;16737;50.932;6.780;2022-09-27T10:11:39;14.40;96.90
9984;DHT22;16737;50.932;6.780;2022-09-27T10:14:09;14.50;96.70
9984;DHT22;16737;50.932;6.780;2022-09-27T10:16:40;14.50;96.70
9984;DHT22;16737;50.932;6.780;2022-09-27T10:19:14;14.50;96.70
9984;DHT22;16737;50.932;6.780;2022-09-27T10:21:45;14.50;96.60
9984;DHT22;16737;50.932;6.780;2022-09-27T10:24:17;14.50;96.60
9984;DHT22;16737;50.932;6.780;2022-09-27T10:26:46;14.50;96.60
9984;DHT22;16737;50.932;6.780;2022-09-27T10:29:23;14.50;96.60
9984;DHT22;16737;50.932;6.780;2022-09-27T10:31:56;14.50;96.70
9984;DHT22;16737;50.932;6.780;2022-09-27T10:34:27;14.50;96.60
9984;DHT22;16737;50.932;6.780;2022-09-27T10:37:15;14.60;96.70
9984;DHT22;16737;50.932;6.780;2022-09-27T10:39:44;14.60;96.40
9984;DHT22;16737;50.932;6.780;2022-09-27T10:42:20;14.70;96.50
9984;DHT22;16737;50.932;6.780;2022-09-27T10:44:48;14.70;96.30
9984;DHT22;16737;50.932;6.780;2022-09-27T10:47:20;14.70;96.30
9984;DHT22;16737;50.932;6.780;2022-09-27T10:49:51;14.70;96.20
9984;DHT22;16737;50.932;6.780;2022-09-27T10:52:29;14.70;96.20
9984;DHT22;16737;50.932;6.780;2022-09-27T10:54:58;14.70;96.20
9984;DHT22;16737;50.932;6.780;2022-09-27T10:57:28;14.60;96.10
9984;DHT22;16737;50.932;6.780;2022-09-27T10:59:58;14.60;96.10
9984;DHT22;16737;50.932;6.780;2022-09-27T11:02:31;14.60;96.10
9984;DHT22;16737;50.932;6.780;2022-09-27T11:05:08;14.60;96.00
9984;DHT22;16737;50.932;6.780;2022-09-27T11:07:47;14.60;96.00
9984;DHT22;16737;50.932;6.780;2022-09-27T11:10:23;14.60;95.90
9984;DHT22;16737;50.932;6.780;2022-09-27T11:13:07;14.60;96.00
9984;DHT22;16737;50.932;6.780;2022-09-27T11:15:59;14.60;96.00
9984;DHT22;16737;50.932;6.780;2022-09-27T11:18:44;14.60;96.00
9984;DHT22;16737;50.932;6.780;2022-09-27T11:21:21;14.60;96.10
9984;DHT22;16737;50.932;6.780;2022-09-27T11:24:16;14.60;96.20
9984;DHT22;16737;50.932;6.780;2022-09-27T11:27:00;14.60;96.10
9984;DHT22;16737;50.932;6.780;2022-09-27T11:29:43;14.60;96.20
9984;DHT22;16737;50.932;6.780;2022-09-27T11:32:28;14.60;96.10
9984;DHT22;16737;50.932;6.780;2022-09-27T11:38:21;14.70;95.90
9984;DHT22;16737;50.932;6.780;2022-09-27T11:41:10;14.70;96.00
9984;DHT22;16737;50.932;6.780;2022-09-27T11:44:09;14.70;95.80
9984;DHT22;16737;50.932;6.780;2022-09-27T11:47:06;14.70;95.80
9984;DHT22;16737;50.932;6.780;2022-09-27T11:50:19;14.70;95.90
9984;DHT22;16737;50.932;6.780;2022-09-27T11:53:10;14.80;95.90
9984;DHT22;16737;50.932;6.780;2022-09-27T11:55:54;14.80;95.90
9984;DHT22;16737;50.932;6.780;2022-09-27T11:58:33;14.80;96.10
9984;DHT22;16737;50.932;6.780;2022-09-27T12:01:14;14.90;96.10
9984;DHT22;16737;50.932;6.780;2022-09-27T12:06:49;15.00;96.00
9984;DHT22;16737;50.932;6.780;2022-09-27T12:09:29;15.00;96.00
9984;DHT22;16737;50.932;6.780;2022-09-27T12:12:03;15.00;95.80
9984;DHT22;16737;50.932;6.780;2022-09-27T12:14:39;15.00;95.70
9984;DHT22;16737;50.932;6.780;2022-09-27T12:17:11;15.00;95.60
9984;DHT22;16737;50.932;6.780;2022-09-27T12:19:45;15.00;95.60
9984;DHT22;16737;50.932;6.780;2022-09-27T12:22:19;15.00;95.60
9984;DHT22;16737;50.932;6.780;2022-09-27T12:24:52;15.00;95.70
9984;DHT22;16737;50.932;6.780;2022-09-27T12:27:31;15.00;95.70
9984;DHT22;16737;50.932;6.780;2022-09-27T12:30:02;15.00;95.80
9984;DHT22;16737;50.932;6.780;2022-09-27T12:32:34;15.00;95.80
9984;DHT22;16737;50.932;6.780;2022-09-27T12:35:16;15.00;95.80
9984;DHT22;16737;50.932;6.780;2022-09-27T12:37:50;15.00;95.70
9984;DHT22;16737;50.932;6.780;2022-09-27T12:40:27;15.00;95.80
9984;DHT22;16737;50.932;6.780;2022-09-27T12:43:01;15.00;95.80
9984;DHT22;16737;50.932;6.780;2022-09-27T12:45:40;15.00;95.70
9984;DHT22;16737;50.932;6.780;2022-09-27T12:48:17;15.00;95.70
9984;DHT22;16737;50.932;6.780;2022-09-27T12:50:57;14.90;95.60
9984;DHT22;16737;50.932;6.780;2022-09-27T12:53:45;14.80;95.40
9984;DHT22;16737;50.932;6.780;2022-09-27T12:56:34;14.70;95.10
9984;DHT22;16737;50.932;6.780;2022-09-27T12:59:34;14.60;95.00
9984;DHT22;16737;50.932;6.780;2022-09-27T13:05:43;14.30;95.20
9984;DHT22;16737;50.932;6.780;2022-09-27T13:08:43;14.20;95.40
9984;DHT22;16737;50.932;6.780;2022-09-27T13:11:28;14.10;95.40
9984;DHT22;16737;50.932;6.780;2022-09-27T13:14:09;14.00;95.50
9984;DHT22;16737;50.932;6.780;2022-09-27T13:16:43;13.90;95.50
9984;DHT22;16737;50.932;6.780;2022-09-27T13:19:38;13.90;95.60
9984;DHT22;16737;50.932;6.780;2022-09-27T13:22:08;13.90;95.80
9984;DHT22;16737;50.932;6.780;2022-09-27T13:24:41;13.80;95.70
9984;DHT22;16737;50.932;6.780;2022-09-27T13:27:39;13.70;95.70
9984;DHT22;16737;50.932;6.780;2022-09-27T13:30:43;13.70;95.70
9984;DHT22;16737;50.932;6.780;2022-09-27T13:33:31;13.60;95.60
9984;DHT22;16737;50.932;6.780;2022-09-27T13:36:26;13.50;95.60
9984;DHT22;16737;50.932;6.780;2022-09-27T13:39:13;13.50;95.70
9984;DHT22;16737;50.932;6.780;2022-09-27T13:42:04;13.40;95.70
9984;DHT22;16737;50.932;6.780;2022-09-27T13:44:48;13.40;95.80
9984;DHT22;16737;50.932;6.780;2022-09-27T13:47:28;13.30;95.80
9984;DHT22;16737;50.932;6.780;2022-09-27T13:50:13;13.20;95.90
9984;DHT22;16737;50.932;6.780;2022-09-27T13:52:56;13.30;96.10
9984;DHT22;16737;50.932;6.780;2022-09-27T13:55:45;13.20;96.20
9984;DHT22;16737;50.932;6.780;2022-09-27T13:58:23;13.20;96.70
9984;DHT22;16737;50.932;6.780;2022-09-27T14:01:02;13.30;96.40
9984;DHT22;16737;50.932;6.780;2022-09-27T14:03:51;13.30;96.40
9984;DHT22;16737;50.932;6.780;2022-09-27T14:06:23;13.30;96.60
9984;DHT22;16737;50.932;6.780;2022-09-27T14:08:56;13.30;96.90
9984;DHT22;16737;50.932;6.780;2022-09-27T14:11:28;13.40;96.70
9984;DHT22;16737;50.932;6.780;2022-09-27T14:14:03;13.40;96.70
9984;DHT22;16737;50.932;6.780;2022-09-27T14:16:35;13.40;96.70
9984;DHT22;16737;50.932;6.780;2022-09-27T14:19:13;13.50;96.70
9984;DHT22;16737;50.932;6.780;2022-09-27T14:22:10;13.50;96.60
9984;DHT22;16737;50.932;6.780;2022-09-27T14:24:46;13.60;96.70
9984;DHT22;16737;50.932;6.780;2022-09-27T14:27:16;13.60;96.60
9984;DHT22;16737;50.932;6.780;2022-09-27T14:29:48;13.60;96.60
9984;DHT22;16737;50.932;6.780;2022-09-27T14:32:21;13.60;96.60
9984;DHT22;16737;50.932;6.780;2022-09-27T14:35:05;13.60;96.60
9984;DHT22;16737;50.932;6.780;2022-09-27T14:37:56;13.60;97.10
9984;DHT22;16737;50.932;6.780;2022-09-27T14:40:24;13.60;96.70
9984;DHT22;16737;50.932;6.780;2022-09-27T14:42:54;13.70;96.90
9984;DHT22;16737;50.932;6.780;2022-09-27T14:45:26;13.70;96.90
9984;DHT22;16737;50.932;6.780;2022-09-27T14:48:17;13.80;97.00
9984;DHT22;16737;50.932;6.780;2022-09-27T14:50:53;13.90;97.30
9984;DHT22;16737;50.932;6.780;2022-09-27T14:53:26;13.90;97.10
9984;DHT22;16737;50.932;6.780;2022-09-27T14:55:55;13.90;97.00
9984;DHT22;16737;50.932;6.780;2022-09-27T14:58:23;14.00;97.00
9984;DHT22;16737;50.932;6.780;2022-09-27T15:00:51;14.10;97.00
9984;DHT22;16737;50.932;6.780;2022-09-27T15:03:22;14.10;96.90
9984;DHT22;16737;50.932;6.780;2022-09-27T15:05:51;14.10;96.90
9984;DHT22;16737;50.932;6.780;2022-09-27T15:08:20;14.20;96.80
9984;DHT22;16737;50.932;6.780;2022-09-27T15:10:49;14.20;96.80
9984;DHT22;16737;50.932;6.780;2022-09-27T15:13:18;14.20;96.50
9984;DHT22;16737;50.932;6.780;2022-09-27T15:15:46;14.20;96.30
9984;DHT22;16737;50.932;6.780;2022-09-27T15:18:40;14.10;96.00
9984;DHT22;16737;50.932;6.780;2022-09-27T15:21:11;14.10;95.70
9984;DHT22;16737;50.932;6.780;2022-09-27T15:23:40;14.00;95.60
9984;DHT22;16737;50.932;6.780;2022-09-27T15:26:13;13.90;95.50
9984;DHT22;16737;50.932;6.780;2022-09-27T15:28:45;13.90;95.50
9984;DHT22;16737;50.932;6.780;2022-09-27T15:31:15;13.80;95.50
9984;DHT22;16737;50.932;6.780;2022-09-27T15:33:51;13.70;95.50
9984;DHT22;16737;50.932;6.780;2022-09-27T15:36:49;13.60;95.50
9984;DHT22;16737;50.932;6.780;2022-09-27T15:39:20;13.60;95.60
9984;DHT22;16737;50.932;6.780;2022-09-27T15:42:05;13.50;95.60
9984;DHT22;16737;50.932;6.780;2022-09-27T15:44:45;13.50;95.70
9984;DHT22;16737;50.932;6.780;2022-09-27T15:47:46;13.50;95.80
9984;DHT22;16737;50.932;6.780;2022-09-27T15:50:36;13.40;95.90
9984;DHT22;16737;50.932;6.780;2022-09-27T15:53:06;13.40;95.90
9984;DHT22;16737;50.932;6.780;2022-09-27T15:55:39;13.40;95.90
9984;DHT22;16737;50.932;6.780;2022-09-27T15:58:12;13.40;95.90
9984;DHT22;16737;50.932;6.780;2022-09-27T16:00:50;13.40;95.90
9984;DHT22;16737;50.932;6.780;2022-09-27T16:03:18;13.40;95.90
9984;DHT22;16737;50.932;6.780;2022-09-27T16:05:46;13.40;96.00
9984;DHT22;16737;50.932;6.780;2022-09-27T16:08:13;13.40;95.90
9984;DHT22;16737;50.932;6.780;2022-09-27T16:10:43;13.40;96.00
9984;DHT22;16737;50.932;6.780;2022-09-27T16:13:12;13.40;95.90
9984;DHT22;16737;50.932;6.780;2022-09-27T16:15:39;13.40;96.30
9984;DHT22;16737;50.932;6.780;2022-09-27T16:18:08;13.40;95.90
9984;DHT22;16737;50.932;6.780;2022-09-27T16:20:35;13.40;95.90
9984;DHT22;16737;50.932;6.780;2022-09-27T16:23:04;13.40;95.90
9984;DHT22;16737;50.932;6.780;2022-09-27T16:25:31;13.40;95.90
9984;DHT22;16737;50.932;6.780;2022-09-27T16:27:59;13.40;95.90
9984;DHT22;16737;50.932;6.780;2022-09-27T16:30:27;13.40;95.90
9984;DHT22;16737;50.932;6.780;2022-09-27T16:32:55;13.50;96.00
9984;DHT22;16737;50.932;6.780;2022-09-27T16:35:24;13.40;96.00
9984;DHT22;16737;50.932;6.780;2022-09-27T16:37:52;13.40;96.00